Ray City, Georgia
Current Conditions -  °F | °C
As of 8:58 AM on Monday 26 Jan 2015 (Local Time) from KVAD Reporting Station
Scattered Clouds Scattered Clouds  
Wind Chill: 44°   Ceiling: Unl
Heat Index: 49°   Visibility: 10mi
Dew Point: 41°   Wind: 13mph
Humidity: 73%   Direction: 300°WNW
Pressure: 29.86"   Gusts: NA
Location:  31.07°N, 83.2°W
Report Text: KVAD 261358Z AUTO 30011KT 10SM SCT039 10/05 A2986 RMK AO2 SLP114 T00960050 $
Loading
Personal Weather Stations






























Interactive Weather Map New forecast layout! Learn more

10-Day Weather Forecast

Advertisements
Track Severe Weather on mobile